sensor_id;sensor_type;location;lat;lon;timestamp;pressure;altitude;pressure_sealevel;temperature;humidity
72124;BME280;63818;37.134;-8.548;2023-07-30T00:02:04;101322.7;;;25.6;53.1
72124;BME280;63818;37.134;-8.548;2023-07-30T00:06:52;101329.7;;;25.8;52.8
72124;BME280;63818;37.134;-8.548;2023-07-30T00:11:38;101319.5;;;25.4;53.1
72124;BME280;63818;37.134;-8.548;2023-07-30T00:16:25;101322.7;;;25.6;53.2
72124;BME280;63818;37.134;-8.548;2023-07-30T00:21:11;101314.0;;;25.5;53.0
72124;BME280;63818;37.134;-8.548;2023-07-30T00:25:57;101314.0;;;25.5;52.7
72124;BME280;63818;37.134;-8.548;2023-07-30T00:30:43;101299.4;;;25.8;51.7
72124;BME280;63818;37.134;-8.548;2023-07-30T00:35:29;101303.0;;;25.8;51.5
72124;BME280;63818;37.134;-8.548;2023-07-30T00:40:15;101304.2;;;25.8;51.0
72124;BME280;63818;37.134;-8.548;2023-07-30T00:45:01;101302.2;;;25.8;50.8
72124;BME280;63818;37.134;-8.548;2023-07-30T00:49:47;101291.2;;;25.8;50.9
72124;BME280;63818;37.134;-8.548;2023-07-30T00:54:33;101288.0;;;25.8;50.5
72124;BME280;63818;37.134;-8.548;2023-07-30T00:59:20;101285.3;;;25.8;50.5
72124;BME280;63818;37.134;-8.548;2023-07-30T01:04:08;101284.9;;;25.8;50.4
72124;BME280;63818;37.134;-8.548;2023-07-30T01:08:54;101281.7;;;25.9;49.7
72124;BME280;63818;37.134;-8.548;2023-07-30T01:13:41;101282.5;;;25.8;49.8
72124;BME280;63818;37.134;-8.548;2023-07-30T01:18:28;101280.5;;;25.7;50.2
72124;BME280;63818;37.134;-8.548;2023-07-30T01:23:13;101283.3;;;25.8;50.1
72124;BME280;63818;37.134;-8.548;2023-07-30T01:28:01;101283.3;;;25.7;50.3
72124;BME280;63818;37.134;-8.548;2023-07-30T01:32:49;101276.2;;;25.8;50.4
72124;BME280;63818;37.134;-8.548;2023-07-30T01:37:37;101280.9;;;25.8;51.3
72124;BME280;63818;37.134;-8.548;2023-07-30T01:42:30;101279.0;;;25.6;51.4
72124;BME280;63818;37.134;-8.548;2023-07-30T01:47:15;101270.4;;;25.6;51.8
72124;BME280;63818;37.134;-8.548;2023-07-30T01:52:02;101274.7;;;25.4;52.2
72124;BME280;63818;37.134;-8.548;2023-07-30T01:56:48;101278.6;;;25.3;52.2
72124;BME280;63818;37.134;-8.548;2023-07-30T02:01:36;101279.0;;;25.3;52.6
72124;BME280;63818;37.134;-8.548;2023-07-30T02:06:22;101273.9;;;25.2;53.2
72124;BME280;63818;37.134;-8.548;2023-07-30T02:11:08;101278.6;;;25.1;53.2
72124;BME280;63818;37.134;-8.548;2023-07-30T02:15:53;101275.9;;;25.2;53.0
72124;BME280;63818;37.134;-8.548;2023-07-30T02:20:39;101274.3;;;25.1;53.3
72124;BME280;63818;37.134;-8.548;2023-07-30T02:25:25;101276.3;;;25.3;53.2
72124;BME280;63818;37.134;-8.548;2023-07-30T02:30:11;101280.6;;;25.1;53.3
72124;BME280;63818;37.134;-8.548;2023-07-30T02:34:57;101281.0;;;25.1;53.6
72124;BME280;63818;37.134;-8.548;2023-07-30T02:39:43;101274.7;;;25.3;52.7
72124;BME280;63818;37.134;-8.548;2023-07-30T02:44:29;101270.0;;;25.2;52.7
72124;BME280;63818;37.134;-8.548;2023-07-30T02:49:15;101272.7;;;25.1;52.5
72124;BME280;63818;37.134;-8.548;2023-07-30T02:54:04;101272.3;;;25.2;52.7
72124;BME280;63818;37.134;-8.548;2023-07-30T02:58:53;101264.1;;;25.1;52.9
72124;BME280;63818;37.134;-8.548;2023-07-30T03:03:38;101271.2;;;25.1;53.1
72124;BME280;63818;37.134;-8.548;2023-07-30T03:08:24;101274.3;;;25.1;53.1
72124;BME280;63818;37.134;-8.548;2023-07-30T03:13:10;101269.2;;;25.1;53.1
72124;BME280;63818;37.134;-8.548;2023-07-30T03:17:57;101268.8;;;25.1;53.6
72124;BME280;63818;37.134;-8.548;2023-07-30T03:22:43;101266.1;;;25.1;53.6
72124;BME280;63818;37.134;-8.548;2023-07-30T03:27:29;101271.2;;;25.0;53.6
72124;BME280;63818;37.134;-8.548;2023-07-30T03:32:15;101277.0;;;24.9;54.2
72124;BME280;63818;37.134;-8.548;2023-07-30T03:37:01;101270.0;;;25.0;54.3
72124;BME280;63818;37.134;-8.548;2023-07-30T03:41:47;101272.7;;;25.0;53.9
72124;BME280;63818;37.134;-8.548;2023-07-30T03:46:33;101275.8;;;24.8;54.6
72124;BME280;63818;37.134;-8.548;2023-07-30T03:51:19;101279.4;;;24.9;54.4
72124;BME280;63818;37.134;-8.548;2023-07-30T03:56:07;101280.1;;;24.9;54.3
72124;BME280;63818;37.134;-8.548;2023-07-30T04:00:53;101285.2;;;24.9;54.5
72124;BME280;63818;37.134;-8.548;2023-07-30T04:05:39;101284.1;;;24.8;54.7
72124;BME280;63818;37.134;-8.548;2023-07-30T04:10:25;101288.4;;;24.7;55.0
72124;BME280;63818;37.134;-8.548;2023-07-30T04:15:12;101285.6;;;24.6;55.3
72124;BME280;63818;37.134;-8.548;2023-07-30T04:19:58;101291.1;;;24.5;55.2
72124;BME280;63818;37.134;-8.548;2023-07-30T04:24:43;101300.5;;;24.5;55.5
72124;BME280;63818;37.134;-8.548;2023-07-30T04:29:30;101286.0;;;24.5;55.6
72124;BME280;63818;37.134;-8.548;2023-07-30T04:34:15;101296.2;;;24.6;56.2
72124;BME280;63818;37.134;-8.548;2023-07-30T04:39:02;101298.9;;;24.4;56.8
72124;BME280;63818;37.134;-8.548;2023-07-30T04:43:50;101302.0;;;24.3;57.4
72124;BME280;63818;37.134;-8.548;2023-07-30T04:48:37;101308.6;;;24.2;57.0
72124;BME280;63818;37.134;-8.548;2023-07-30T04:53:23;101306.3;;;24.3;57.0
72124;BME280;63818;37.134;-8.548;2023-07-30T04:58:11;101301.6;;;24.4;57.0
72124;BME280;63818;37.134;-8.548;2023-07-30T05:02:59;101309.9;;;24.4;56.7
72124;BME280;63818;37.134;-8.548;2023-07-30T05:07:45;101312.2;;;24.3;57.0
72124;BME280;63818;37.134;-8.548;2023-07-30T05:12:31;101311.4;;;24.3;56.5
72124;BME280;63818;37.134;-8.548;2023-07-30T05:17:17;101317.1;;;24.0;57.1
72124;BME280;63818;37.134;-8.548;2023-07-30T05:22:03;101322.7;;;24.2;56.6
72124;BME280;63818;37.134;-8.548;2023-07-30T05:26:49;101333.2;;;24.0;57.1
72124;BME280;63818;37.134;-8.548;2023-07-30T05:31:35;101330.1;;;24.1;56.9
72124;BME280;63818;37.134;-8.548;2023-07-30T05:36:21;101326.2;;;24.1;56.8
72124;BME280;63818;37.134;-8.548;2023-07-30T05:41:07;101330.5;;;24.0;56.8
72124;BME280;63818;37.134;-8.548;2023-07-30T05:45:53;101339.5;;;24.0;57.3
72124;BME280;63818;37.134;-8.548;2023-07-30T05:50:42;101347.7;;;24.0;57.4
72124;BME280;63818;37.134;-8.548;2023-07-30T05:55:27;101355.3;;;24.3;57.3
72124;BME280;63818;37.134;-8.548;2023-07-30T06:00:16;101356.8;;;24.1;57.5
72124;BME280;63818;37.134;-8.548;2023-07-30T06:05:02;101364.0;;;24.4;56.7
72124;BME280;63818;37.134;-8.548;2023-07-30T06:09:48;101368.2;;;24.2;57.1
72124;BME280;63818;37.134;-8.548;2023-07-30T06:14:34;101374.2;;;24.4;56.7
72124;BME280;63818;37.134;-8.548;2023-07-30T06:19:21;101383.6;;;24.4;56.7
72124;BME280;63818;37.134;-8.548;2023-07-30T06:24:07;101376.2;;;24.4;56.8
72124;BME280;63818;37.134;-8.548;2023-07-30T06:28:53;101385.3;;;24.6;56.7
72124;BME280;63818;37.134;-8.548;2023-07-30T06:33:39;101397.1;;;24.7;56.5
72124;BME280;63818;37.134;-8.548;2023-07-30T06:38:24;101407.3;;;24.6;55.8
72124;BME280;63818;37.134;-8.548;2023-07-30T06:43:10;101408.5;;;24.6;54.7
72124;BME280;63818;37.134;-8.548;2023-07-30T06:47:56;101397.9;;;24.7;54.0
72124;BME280;63818;37.134;-8.548;2023-07-30T06:52:42;101411.7;;;24.7;53.0
72124;BME280;63818;37.134;-8.548;2023-07-30T06:57:28;101404.2;;;24.8;52.8
72124;BME280;63818;37.134;-8.548;2023-07-30T07:02:14;101407.3;;;24.7;53.3
72124;BME280;63818;37.134;-8.548;2023-07-30T07:07:00;101424.0;;;25.0;53.1
72124;BME280;63818;37.134;-8.548;2023-07-30T07:11:46;101426.3;;;25.0;52.9
72124;BME280;63818;37.134;-8.548;2023-07-30T07:16:31;101435.8;;;25.0;52.7
72124;BME280;63818;37.134;-8.548;2023-07-30T07:21:17;101436.5;;;25.0;52.5
72124;BME280;63818;37.134;-8.548;2023-07-30T07:26:06;101440.5;;;25.1;51.9
72124;BME280;63818;37.134;-8.548;2023-07-30T07:30:52;101448.0;;;25.2;51.6
72124;BME280;63818;37.134;-8.548;2023-07-30T07:35:37;101443.7;;;25.2;51.5
72124;BME280;63818;37.134;-8.548;2023-07-30T07:40:23;101438.2;;;25.2;51.7
72124;BME280;63818;37.134;-8.548;2023-07-30T07:45:10;101442.5;;;25.3;51.0
72124;BME280;63818;37.134;-8.548;2023-07-30T07:49:56;101437.0;;;25.3;50.5
72124;BME280;63818;37.134;-8.548;2023-07-30T07:54:42;101435.5;;;25.3;50.4
72124;BME280;63818;37.134;-8.548;2023-07-30T07:59:28;101444.9;;;25.4;51.2
72124;BME280;63818;37.134;-8.548;2023-07-30T08:04:14;101443.7;;;25.5;50.0
72124;BME280;63818;37.134;-8.548;2023-07-30T08:09:00;101453.6;;;25.5;48.5
72124;BME280;63818;37.134;-8.548;2023-07-30T08:13:46;101457.9;;;25.5;48.3
72124;BME280;63818;37.134;-8.548;2023-07-30T08:18:32;101453.2;;;25.6;47.4
72124;BME280;63818;37.134;-8.548;2023-07-30T08:23:19;101456.3;;;25.6;46.8
72124;BME280;63818;37.134;-8.548;2023-07-30T08:28:07;101461.1;;;25.7;46.7
72124;BME280;63818;37.134;-8.548;2023-07-30T08:32:53;101460.7;;;25.7;46.6
72124;BME280;63818;37.134;-8.548;2023-07-30T08:37:39;101458.7;;;25.8;46.1
72124;BME280;63818;37.134;-8.548;2023-07-30T08:42:25;101459.5;;;25.8;45.1
72124;BME280;63818;37.134;-8.548;2023-07-30T08:47:11;101459.9;;;25.9;46.5
72124;BME280;63818;37.134;-8.548;2023-07-30T08:51:58;101460.7;;;25.9;47.8
72124;BME280;63818;37.134;-8.548;2023-07-30T08:56:45;101462.3;;;25.9;47.4
72124;BME280;63818;37.134;-8.548;2023-07-30T09:01:38;101470.5;;;25.9;47.9
72124;BME280;63818;37.134;-8.548;2023-07-30T09:06:25;101469.4;;;26.0;47.5
72124;BME280;63818;37.134;-8.548;2023-07-30T09:11:11;101473.7;;;26.0;47.0
72124;BME280;63818;37.134;-8.548;2023-07-30T09:15:57;101471.7;;;26.0;46.4
72124;BME280;63818;37.134;-8.548;2023-07-30T09:20:43;101470.5;;;26.1;46.0
72124;BME280;63818;37.134;-8.548;2023-07-30T09:25:32;101476.8;;;26.1;45.2
72124;BME280;63818;37.134;-8.548;2023-07-30T09:30:22;101474.4;;;26.2;45.1
72124;BME280;63818;37.134;-8.548;2023-07-30T09:35:09;101472.5;;;26.3;45.4
72124;BME280;63818;37.134;-8.548;2023-07-30T09:39:57;101474.5;;;26.3;44.9
72124;BME280;63818;37.134;-8.548;2023-07-30T09:44:46;101474.8;;;26.4;45.1
72124;BME280;63818;37.134;-8.548;2023-07-30T09:49:35;101475.2;;;26.4;44.2
72124;BME280;63818;37.134;-8.548;2023-07-30T09:54:25;101473.2;;;26.5;44.5
72124;BME280;63818;37.134;-8.548;2023-07-30T09:59:14;101478.0;;;26.5;44.3
72124;BME280;63818;37.134;-8.548;2023-07-30T10:04:05;101483.5;;;26.6;44.6
72124;BME280;63818;37.134;-8.548;2023-07-30T10:08:58;101485.0;;;26.6;43.9
72124;BME280;63818;37.134;-8.548;2023-07-30T10:13:46;101490.9;;;26.7;43.7
72124;BME280;63818;37.134;-8.548;2023-07-30T10:18:37;101489.7;;;26.7;43.3
72124;BME280;63818;37.134;-8.548;2023-07-30T10:23:27;101501.5;;;26.8;43.2
72124;BME280;63818;37.134;-8.548;2023-07-30T10:28:31;101495.7;;;26.6;44.9
72124;BME280;63818;37.134;-8.548;2023-07-30T10:33:19;101502.0;;;26.5;46.2
72124;BME280;63818;37.134;-8.548;2023-07-30T10:38:14;101500.0;;;26.6;44.7
72124;BME280;63818;37.134;-8.548;2023-07-30T10:43:00;101492.1;;;26.6;45.1
72124;BME280;63818;37.134;-8.548;2023-07-30T10:47:46;101492.5;;;26.7;45.1
72124;BME280;63818;37.134;-8.548;2023-07-30T10:52:35;101492.9;;;26.6;45.3
72124;BME280;63818;37.134;-8.548;2023-07-30T10:57:23;101485.0;;;26.6;45.1
72124;BME280;63818;37.134;-8.548;2023-07-30T11:02:12;101489.0;;;26.6;45.5
72124;BME280;63818;37.134;-8.548;2023-07-30T11:06:57;101491.7;;;26.5;45.0
72124;BME280;63818;37.134;-8.548;2023-07-30T11:11:43;101492.6;;;26.3;45.7
72124;BME280;63818;37.134;-8.548;2023-07-30T11:16:29;101492.5;;;26.3;45.5
72124;BME280;63818;37.134;-8.548;2023-07-30T11:21:17;101486.2;;;26.4;45.0
72124;BME280;63818;37.134;-8.548;2023-07-30T11:26:07;101496.1;;;26.4;44.7
72124;BME280;63818;37.134;-8.548;2023-07-30T11:30:53;101493.0;;;26.3;43.7
72124;BME280;63818;37.134;-8.548;2023-07-30T11:35:41;101491.0;;;26.3;44.0
72124;BME280;63818;37.134;-8.548;2023-07-30T11:40:28;101498.5;;;26.4;45.5
72124;BME280;63818;37.134;-8.548;2023-07-30T11:45:21;101496.9;;;26.5;44.7
72124;BME280;63818;37.134;-8.548;2023-07-30T11:50:08;101496.0;;;26.7;44.4
72124;BME280;63818;37.134;-8.548;2023-07-30T11:55:01;101490.5;;;26.8;44.0
72124;BME280;63818;37.134;-8.548;2023-07-30T11:59:48;101489.7;;;26.9;44.8
72124;BME280;63818;37.134;-8.548;2023-07-30T12:04:44;101483.8;;;26.9;46.1
72124;BME280;63818;37.134;-8.548;2023-07-30T12:09:35;101476.3;;;27.0;46.2
72124;BME280;63818;37.134;-8.548;2023-07-30T12:14:22;101476.6;;;27.1;43.9
72124;BME280;63818;37.134;-8.548;2023-07-30T12:19:09;101476.1;;;27.2;45.7
72124;BME280;63818;37.134;-8.548;2023-07-30T12:23:55;101472.5;;;27.3;45.4
72124;BME280;63818;37.134;-8.548;2023-07-30T12:28:41;101469.3;;;27.4;45.1
72124;BME280;63818;37.134;-8.548;2023-07-30T12:33:30;101462.6;;;27.5;45.6
72124;BME280;63818;37.134;-8.548;2023-07-30T12:38:16;101455.5;;;27.5;46.8
72124;BME280;63818;37.134;-8.548;2023-07-30T12:43:03;101451.1;;;27.6;46.0
72124;BME280;63818;37.134;-8.548;2023-07-30T12:47:48;101443.0;;;27.8;44.6
72124;BME280;63818;37.134;-8.548;2023-07-30T12:52:35;101436.1;;;28.0;44.2
72124;BME280;63818;37.134;-8.548;2023-07-30T12:57:21;101429.7;;;28.2;44.5
72124;BME280;63818;37.134;-8.548;2023-07-30T13:02:09;101431.4;;;28.4;44.7
72124;BME280;63818;37.134;-8.548;2023-07-30T13:06:55;101421.1;;;28.5;44.4
72124;BME280;63818;37.134;-8.548;2023-07-30T13:11:41;101416.9;;;28.7;44.2
72124;BME280;63818;37.134;-8.548;2023-07-30T13:16:27;101412.9;;;28.8;44.5
72124;BME280;63818;37.134;-8.548;2023-07-30T13:21:13;101409.8;;;29.0;44.1
72124;BME280;63818;37.134;-8.548;2023-07-30T13:25:59;101407.6;;;29.1;43.6
72124;BME280;63818;37.134;-8.548;2023-07-30T13:30:46;101401.0;;;29.3;43.0
72124;BME280;63818;37.134;-8.548;2023-07-30T13:35:32;101410.1;;;29.5;42.5
72124;BME280;63818;37.134;-8.548;2023-07-30T13:40:18;101407.1;;;29.7;41.9
72124;BME280;63818;37.134;-8.548;2023-07-30T13:45:05;101395.1;;;29.8;41.9
72124;BME280;63818;37.134;-8.548;2023-07-30T13:49:51;101397.1;;;30.0;41.4
72124;BME280;63818;37.134;-8.548;2023-07-30T13:54:37;101388.4;;;30.2;40.7
72124;BME280;63818;37.134;-8.548;2023-07-30T13:59:23;101387.9;;;30.5;39.5
72124;BME280;63818;37.134;-8.548;2023-07-30T14:04:09;101374.3;;;30.5;38.8
72124;BME280;63818;37.134;-8.548;2023-07-30T14:08:55;101361.5;;;30.8;38.5
72124;BME280;63818;37.134;-8.548;2023-07-30T14:13:41;101363.2;;;31.1;37.4
72124;BME280;63818;37.134;-8.548;2023-07-30T14:18:27;101375.1;;;31.1;37.3
72124;BME280;63818;37.134;-8.548;2023-07-30T14:23:13;101367.7;;;31.0;37.6
72124;BME280;63818;37.134;-8.548;2023-07-30T14:27:59;101370.8;;;31.1;37.6
72124;BME280;63818;37.134;-8.548;2023-07-30T14:32:45;101366.8;;;31.1;37.2
72124;BME280;63818;37.134;-8.548;2023-07-30T14:37:33;101382.7;;;31.2;37.2
72124;BME280;63818;37.134;-8.548;2023-07-30T14:42:19;101373.8;;;31.3;36.5
72124;BME280;63818;37.134;-8.548;2023-07-30T14:47:05;101375.0;;;31.6;35.9
72124;BME280;63818;37.134;-8.548;2023-07-30T14:51:51;101350.8;;;31.6;35.8
72124;BME280;63818;37.134;-8.548;2023-07-30T14:56:37;101355.7;;;31.5;35.0
72124;BME280;63818;37.134;-8.548;2023-07-30T15:01:27;101345.6;;;31.8;34.1
72124;BME280;63818;37.134;-8.548;2023-07-30T15:06:13;101329.7;;;31.9;34.0
72124;BME280;63818;37.134;-8.548;2023-07-30T15:10:59;101335.0;;;32.0;33.7
72124;BME280;63818;37.134;-8.548;2023-07-30T15:15:45;101359.5;;;32.1;33.1
72124;BME280;63818;37.134;-8.548;2023-07-30T15:20:33;101340.8;;;32.2;32.9
72124;BME280;63818;37.134;-8.548;2023-07-30T15:25:20;101319.8;;;32.3;32.4
72124;BME280;63818;37.134;-8.548;2023-07-30T15:30:06;101323.4;;;32.2;32.9
72124;BME280;63818;37.134;-8.548;2023-07-30T15:34:52;101315.9;;;32.3;32.5
72124;BME280;63818;37.134;-8.548;2023-07-30T15:39:38;101335.5;;;32.4;32.6
72124;BME280;63818;37.134;-8.548;2023-07-30T15:44:24;101355.5;;;32.5;32.5
72124;BME280;63818;37.134;-8.548;2023-07-30T15:49:10;101337.8;;;32.4;32.5
72124;BME280;63818;37.134;-8.548;2023-07-30T15:53:59;101328.7;;;32.5;31.8
72124;BME280;63818;37.134;-8.548;2023-07-30T15:58:45;101306.0;;;32.7;31.3
72124;BME280;63818;37.134;-8.548;2023-07-30T16:03:31;101317.3;;;32.8;29.4
72124;BME280;63818;37.134;-8.548;2023-07-30T16:08:17;101307.2;;;32.9;28.2
72124;BME280;63818;37.134;-8.548;2023-07-30T16:13:03;101321.2;;;33.0;28.5
72124;BME280;63818;37.134;-8.548;2023-07-30T16:17:49;101306.9;;;32.9;28.6
72124;BME280;63818;37.134;-8.548;2023-07-30T16:22:36;101313.7;;;33.0;28.2
72124;BME280;63818;37.134;-8.548;2023-07-30T16:27:22;101311.6;;;33.2;29.0
72124;BME280;63818;37.134;-8.548;2023-07-30T16:32:08;101310.7;;;33.5;27.9
72124;BME280;63818;37.134;-8.548;2023-07-30T16:36:53;101303.1;;;35.5;24.5
72124;BME280;63818;37.134;-8.548;2023-07-30T16:41:40;101316.0;;;36.6;23.0
72124;BME280;63818;37.134;-8.548;2023-07-30T16:46:26;101299.5;;;36.0;23.1
72124;BME280;63818;37.134;-8.548;2023-07-30T16:51:12;101310.1;;;34.1;25.1
72124;BME280;63818;37.134;-8.548;2023-07-30T16:55:58;101309.2;;;33.5;26.1
72124;BME280;63818;37.134;-8.548;2023-07-30T17:00:45;101306.7;;;33.6;26.3
72124;BME280;63818;37.134;-8.548;2023-07-30T17:05:31;101332.8;;;33.3;26.5
72124;BME280;63818;37.134;-8.548;2023-07-30T17:10:17;101342.1;;;33.2;26.3
72124;BME280;63818;37.134;-8.548;2023-07-30T17:15:06;101335.8;;;33.2;26.6
72124;BME280;63818;37.134;-8.548;2023-07-30T17:19:53;101316.5;;;33.0;27.1
72124;BME280;63818;37.134;-8.548;2023-07-30T17:24:39;101333.6;;;32.9;27.0
72124;BME280;63818;37.134;-8.548;2023-07-30T17:29:25;101327.6;;;33.3;26.8
72124;BME280;63818;37.134;-8.548;2023-07-30T17:34:11;101347.6;;;32.8;27.2
72124;BME280;63818;37.134;-8.548;2023-07-30T17:38:57;101335.1;;;33.1;27.1
72124;BME280;63818;37.134;-8.548;2023-07-30T17:43:43;101346.2;;;32.7;27.9
72124;BME280;63818;37.134;-8.548;2023-07-30T17:48:30;101361.4;;;32.6;27.8
72124;BME280;63818;37.134;-8.548;2023-07-30T17:53:16;101358.6;;;32.5;28.7
72124;BME280;63818;37.134;-8.548;2023-07-30T17:58:02;101369.9;;;32.3;29.1
72124;BME280;63818;37.134;-8.548;2023-07-30T18:02:51;101365.6;;;32.6;29.2
72124;BME280;63818;37.134;-8.548;2023-07-30T18:07:36;101367.7;;;32.3;29.7
72124;BME280;63818;37.134;-8.548;2023-07-30T18:12:22;101371.2;;;32.3;29.8
72124;BME280;63818;37.134;-8.548;2023-07-30T18:17:08;101373.6;;;32.2;30.3
72124;BME280;63818;37.134;-8.548;2023-07-30T18:21:55;101359.0;;;32.2;30.1
72124;BME280;63818;37.134;-8.548;2023-07-30T18:26:41;101362.6;;;32.0;30.1
72124;BME280;63818;37.134;-8.548;2023-07-30T18:31:27;101358.4;;;31.8;29.9
72124;BME280;63818;37.134;-8.548;2023-07-30T18:36:16;101347.3;;;31.9;29.0
72124;BME280;63818;37.134;-8.548;2023-07-30T18:41:04;101360.6;;;31.8;29.9
72124;BME280;63818;37.134;-8.548;2023-07-30T18:45:50;101376.3;;;31.7;30.1
72124;BME280;63818;37.134;-8.548;2023-07-30T18:50:45;101373.2;;;31.7;30.7
72124;BME280;63818;37.134;-8.548;2023-07-30T18:55:32;101393.9;;;31.4;30.6
72124;BME280;63818;37.134;-8.548;2023-07-30T19:00:20;101388.0;;;31.2;32.1
72124;BME280;63818;37.134;-8.548;2023-07-30T19:05:06;101392.4;;;30.8;32.4
72124;BME280;63818;37.134;-8.548;2023-07-30T19:09:52;101408.0;;;30.5;33.1
72124;BME280;63818;37.134;-8.548;2023-07-30T19:14:38;101406.6;;;30.2;33.7
72124;BME280;63818;37.134;-8.548;2023-07-30T19:19:24;101396.7;;;30.2;33.7
72124;BME280;63818;37.134;-8.548;2023-07-30T19:24:12;101385.5;;;30.1;34.2
72124;BME280;63818;37.134;-8.548;2023-07-30T19:28:58;101392.0;;;30.0;34.9
72124;BME280;63818;37.134;-8.548;2023-07-30T19:33:44;101408.8;;;29.9;34.9
72124;BME280;63818;37.134;-8.548;2023-07-30T19:38:33;101400.3;;;29.7;35.4
72124;BME280;63818;37.134;-8.548;2023-07-30T19:43:20;101401.9;;;29.8;35.5
72124;BME280;63818;37.134;-8.548;2023-07-30T19:48:08;101407.1;;;29.7;35.6
72124;BME280;63818;37.134;-8.548;2023-07-30T19:52:58;101410.9;;;29.6;35.9
72124;BME280;63818;37.134;-8.548;2023-07-30T19:57:44;101404.9;;;29.6;35.9
72124;BME280;63818;37.134;-8.548;2023-07-30T20:02:35;101414.2;;;29.2;35.9
72124;BME280;63818;37.134;-8.548;2023-07-30T20:07:21;101413.5;;;29.4;35.6
72124;BME280;63818;37.134;-8.548;2023-07-30T20:12:07;101417.0;;;29.5;35.2
72124;BME280;63818;37.134;-8.548;2023-07-30T20:16:53;101414.1;;;29.3;35.0
72124;BME280;63818;37.134;-8.548;2023-07-30T20:21:38;101416.5;;;29.3;34.9
72124;BME280;63818;37.134;-8.548;2023-07-30T20:26:25;101433.2;;;29.2;34.6
72124;BME280;63818;37.134;-8.548;2023-07-30T20:31:11;101427.2;;;29.2;34.3
72124;BME280;63818;37.134;-8.548;2023-07-30T20:35:59;101436.2;;;29.4;33.6
72124;BME280;63818;37.134;-8.548;2023-07-30T20:40:45;101441.3;;;29.3;33.3
72124;BME280;63818;37.134;-8.548;2023-07-30T20:45:31;101434.4;;;29.2;33.5
72124;BME280;63818;37.134;-8.548;2023-07-30T20:50:18;101446.2;;;29.2;33.5
72124;BME280;63818;37.134;-8.548;2023-07-30T20:55:05;101451.0;;;29.2;34.0
72124;BME280;63818;37.134;-8.548;2023-07-30T20:59:51;101456.4;;;29.0;34.5
72124;BME280;63818;37.134;-8.548;2023-07-30T21:04:37;101456.2;;;28.9;34.8
72124;BME280;63818;37.134;-8.548;2023-07-30T21:09:23;101472.3;;;28.6;35.6
72124;BME280;63818;37.134;-8.548;2023-07-30T21:14:09;101479.5;;;28.5;36.7
72124;BME280;63818;37.134;-8.548;2023-07-30T21:18:55;101483.2;;;28.4;37.1
72124;BME280;63818;37.134;-8.548;2023-07-30T21:23:41;101479.3;;;28.3;37.5
72124;BME280;63818;37.134;-8.548;2023-07-30T21:28:28;101478.4;;;28.4;37.0
72124;BME280;63818;37.134;-8.548;2023-07-30T21:33:14;101495.4;;;28.5;37.4
72124;BME280;63818;37.134;-8.548;2023-07-30T21:38:00;101497.6;;;28.1;37.9
72124;BME280;63818;37.134;-8.548;2023-07-30T21:42:46;101511.4;;;28.1;37.8
72124;BME280;63818;37.134;-8.548;2023-07-30T21:47:32;101507.7;;;28.3;37.5
72124;BME280;63818;37.134;-8.548;2023-07-30T21:52:23;101510.7;;;28.1;38.0
72124;BME280;63818;37.134;-8.548;2023-07-30T21:57:09;101507.9;;;28.1;37.8
72124;BME280;63818;37.134;-8.548;2023-07-30T22:01:56;101506.8;;;28.0;38.3
72124;BME280;63818;37.134;-8.548;2023-07-30T22:06:44;101508.8;;;28.0;37.7
72124;BME280;63818;37.134;-8.548;2023-07-30T22:11:30;101511.2;;;27.9;38.0
72124;BME280;63818;37.134;-8.548;2023-07-30T22:16:16;101509.1;;;28.0;37.7
72124;BME280;63818;37.134;-8.548;2023-07-30T22:21:02;101510.0;;;28.0;37.6
72124;BME280;63818;37.134;-8.548;2023-07-30T22:25:50;101508.7;;;28.1;37.2
72124;BME280;63818;37.134;-8.548;2023-07-30T22:30:37;101511.2;;;27.9;37.3
72124;BME280;63818;37.134;-8.548;2023-07-30T22:35:24;101506.5;;;27.9;37.2
72124;BME280;63818;37.134;-8.548;2023-07-30T22:40:10;101517.1;;;28.0;37.1
72124;BME280;63818;37.134;-8.548;2023-07-30T22:44:56;101521.5;;;27.9;36.8
72124;BME280;63818;37.134;-8.548;2023-07-30T22:49:44;101516.5;;;27.7;36.6
72124;BME280;63818;37.134;-8.548;2023-07-30T22:54:30;101514.7;;;28.0;36.5
72124;BME280;63818;37.134;-8.548;2023-07-30T22:59:16;101509.6;;;28.0;36.2
72124;BME280;63818;37.134;-8.548;2023-07-30T23:04:02;101508.1;;;27.8;35.9
72124;BME280;63818;37.134;-8.548;2023-07-30T23:08:48;101504.5;;;28.0;35.8
72124;BME280;63818;37.134;-8.548;2023-07-30T23:13:34;101504.8;;;28.0;35.3
72124;BME280;63818;37.134;-8.548;2023-07-30T23:18:20;101513.6;;;27.9;35.6
72124;BME280;63818;37.134;-8.548;2023-07-30T23:23:06;101506.5;;;27.9;35.3
72124;BME280;63818;37.134;-8.548;2023-07-30T23:27:52;101519.4;;;28.1;35.1
72124;BME280;63818;37.134;-8.548;2023-07-30T23:32:38;101521.8;;;28.0;35.0
72124;BME280;63818;37.134;-8.548;2023-07-30T23:37:25;101527.0;;;27.9;35.2
72124;BME280;63818;37.134;-8.548;2023-07-30T23:42:11;101523.4;;;28.0;35.1
72124;BME280;63818;37.134;-8.548;2023-07-30T23:46:57;101521.1;;;27.9;34.9
72124;BME280;63818;37.134;-8.548;2023-07-30T23:51:44;101524.7;;;27.9;34.7
72124;BME280;63818;37.134;-8.548;2023-07-30T23:56:30;101519.2;;;27.7;34.8
